createdAt,value
2022-09-06T00:02:21.648Z,76.45
2022-09-06T00:04:50.031Z,76.50
2022-09-06T00:07:18.491Z,76.72
2022-09-06T00:09:46.586Z,76.99
2022-09-06T00:12:14.709Z,76.92
2022-09-06T00:14:42.814Z,76.67
2022-09-06T00:17:12.738Z,77.18
2022-09-06T00:19:41.086Z,77.04
2022-09-06T00:22:09.875Z,76.96
2022-09-06T00:24:38.209Z,77.34
2022-09-06T00:27:06.722Z,77.54
2022-09-06T00:29:35.002Z,77.44
2022-09-06T00:32:03.388Z,78.15
2022-09-06T00:34:33.083Z,77.74
2022-09-06T00:37:01.279Z,77.90
2022-09-06T00:39:29.773Z,78.15
2022-09-06T00:41:58.001Z,77.78
2022-09-06T00:44:25.943Z,77.54
2022-09-06T00:46:55.966Z,78.06
2022-09-06T00:49:27.033Z,78.58
2022-09-06T00:52:02.160Z,77.86
2022-09-06T00:54:30.553Z,77.53
2022-09-06T00:57:00.501Z,77.56
2022-09-06T00:59:31.259Z,77.86
2022-09-06T01:01:59.842Z,77.88
2022-09-06T01:04:28.845Z,78.08
2022-09-06T01:07:07.400Z,77.53
2022-09-06T01:09:49.203Z,77.76
2022-09-06T01:12:28.120Z,77.57
2022-09-06T01:15:12.945Z,77.50
2022-09-06T01:17:54.676Z,77.72
2022-09-06T01:20:46.177Z,78.06
2022-09-06T01:23:36.479Z,78.23
2022-09-06T01:26:31.151Z,78.32
2022-09-06T01:29:00.808Z,78.73
2022-09-06T01:31:46.417Z,78.72
2022-09-06T01:34:24.055Z,79.20
2022-09-06T01:37:09.496Z,79.09
2022-09-06T01:39:39.557Z,78.96
2022-09-06T01:42:11.365Z,79.25
2022-09-06T01:44:44.044Z,79.31
2022-09-06T01:47:23.103Z,78.78
2022-09-06T01:50:03.959Z,78.98
2022-09-06T01:52:39.880Z,78.85
2022-09-06T01:55:22.669Z,78.48
2022-09-06T01:58:06.456Z,78.44
2022-09-06T02:00:44.393Z,79.10
2022-09-06T02:03:21.709Z,78.38
2022-09-06T02:05:54.104Z,78.19
2022-09-06T02:08:27.306Z,78.16
2022-09-06T02:10:59.966Z,78.93
2022-09-06T02:13:34.741Z,80.27
2022-09-06T02:16:06.295Z,80.25
2022-09-06T02:18:39.372Z,80.20
2022-09-06T02:21:08.048Z,79.90
2022-09-06T02:23:40.476Z,79.11
2022-09-06T02:26:14.552Z,78.21
2022-09-06T02:28:42.643Z,77.96
2022-09-06T02:31:17.533Z,78.32
2022-09-06T02:33:48.408Z,77.66
2022-09-06T02:36:16.843Z,77.04
2022-09-06T02:38:46.839Z,76.88
2022-09-06T02:41:18.537Z,77.02
2022-09-06T02:43:46.790Z,76.17
2022-09-06T02:46:16.759Z,76.34
2022-09-06T02:48:44.858Z,77.06
2022-09-06T02:51:13.010Z,78.32
2022-09-06T02:53:41.133Z,79.00
2022-09-06T02:56:09.623Z,78.93
2022-09-06T03:03:34.097Z,78.14
2022-09-06T03:06:02.374Z,78.83
2022-09-06T03:08:33.627Z,78.65
2022-09-06T03:11:02.188Z,79.13
2022-09-06T03:13:30.788Z,79.05
2022-09-06T03:16:00.688Z,79.36
2022-09-06T03:18:31.065Z,80.58
2022-09-06T03:21:00.849Z,80.12
2022-09-06T03:23:30.174Z,80.22
2022-09-06T03:25:58.548Z,79.86
2022-09-06T03:28:27.872Z,79.35
2022-09-06T03:30:56.133Z,79.37
2022-09-06T03:33:24.425Z,79.35
2022-09-06T03:35:54.622Z,79.04
2022-09-06T03:38:25.742Z,79.40
2022-09-06T03:40:53.936Z,80.22
2022-09-06T03:43:23.575Z,80.01
2022-09-06T03:45:53.385Z,79.75
2022-09-06T03:48:23.086Z,80.45
2022-09-06T03:50:54.220Z,80.15
2022-09-06T03:53:25.751Z,80.67
2022-09-06T03:55:55.605Z,81.16
2022-09-06T03:58:25.292Z,80.98
2022-09-06T04:01:02.094Z,81.60
2022-09-06T04:03:30.191Z,81.40
2022-09-06T04:05:58.223Z,81.58
2022-09-06T04:08:28.034Z,81.84
2022-09-06T04:10:56.996Z,82.22
2022-09-06T04:13:26.348Z,82.75
2022-09-06T04:15:54.476Z,82.67
2022-09-06T04:18:22.999Z,82.65
2022-09-06T04:20:52.213Z,82.71
2022-09-06T04:23:21.254Z,82.67
2022-09-06T04:25:52.299Z,82.81
2022-09-06T04:28:21.242Z,82.58
2022-09-06T04:30:54.169Z,82.84
2022-09-06T04:33:25.776Z,82.82
2022-09-06T04:35:54.711Z,83.15
2022-09-06T04:38:24.256Z,82.88
2022-09-06T04:40:55.529Z,83.39
2022-09-06T04:43:24.397Z,82.99
2022-09-06T04:45:52.445Z,83.02
2022-09-06T04:48:20.737Z,83.19
2022-09-06T04:50:48.811Z,83.02
2022-09-06T04:53:16.893Z,82.56
2022-09-06T04:55:45.160Z,82.44
2022-09-06T04:58:14.579Z,82.58
2022-09-06T05:00:44.742Z,82.61
2022-09-06T05:03:12.806Z,82.09
2022-09-06T05:05:41.440Z,82.93
2022-09-06T05:08:09.532Z,82.23
2022-09-06T05:10:37.568Z,82.36
2022-09-06T05:13:05.633Z,82.73
2022-09-06T05:15:35.016Z,82.68
2022-09-06T05:18:04.955Z,82.75
2022-09-06T05:20:33.465Z,82.94
2022-09-06T05:23:01.661Z,82.93
2022-09-06T05:25:29.695Z,83.22
2022-09-06T05:27:57.767Z,83.23
2022-09-06T05:30:25.788Z,82.93
2022-09-06T05:32:55.219Z,83.22
2022-09-06T05:35:23.333Z,83.21
2022-09-06T05:37:51.461Z,82.33
2022-09-06T05:40:19.553Z,83.29
2022-09-06T05:42:47.556Z,82.72
2022-09-06T05:45:15.791Z,82.29
2022-09-06T05:47:43.800Z,82.65
2022-09-06T05:50:13.580Z,82.34
2022-09-06T05:52:41.658Z,82.37
2022-09-06T05:55:10.583Z,82.47
2022-09-06T05:57:38.964Z,82.41
2022-09-06T06:00:08.064Z,82.16
2022-09-06T06:02:40.002Z,81.85
2022-09-06T06:05:09.024Z,82.24
2022-09-06T06:07:38.515Z,82.38
2022-09-06T06:10:07.552Z,82.45
2022-09-06T06:12:35.686Z,82.65
2022-09-06T06:15:05.787Z,82.62
2022-09-06T06:17:34.159Z,81.99
2022-09-06T06:20:02.321Z,81.69
2022-09-06T06:22:30.319Z,81.21
2022-09-06T06:24:59.799Z,81.63
2022-09-06T06:27:27.775Z,81.55
2022-09-06T06:29:55.854Z,81.40
2022-09-06T06:32:23.884Z,81.10
2022-09-06T06:34:51.964Z,79.23
2022-09-06T06:37:20.018Z,79.78
2022-09-06T06:39:48.247Z,79.53
2022-09-06T06:42:17.801Z,78.45
2022-09-06T06:44:53.850Z,78.34
2022-09-06T06:47:21.922Z,77.85
2022-09-06T06:49:49.990Z,77.89
2022-09-06T06:52:18.146Z,77.26
2022-09-06T06:54:46.331Z,75.65
2022-09-06T06:57:14.485Z,75.12
2022-09-06T06:59:43.916Z,73.81
2022-09-06T07:02:12.654Z,73.34
2022-09-06T07:04:40.828Z,72.97
2022-09-06T07:12:45.645Z,71.54
2022-09-06T07:15:15.224Z,70.92
2022-09-06T07:17:44.145Z,70.82
2022-09-06T07:20:12.985Z,70.67
2022-09-06T07:22:42.056Z,69.80
2022-09-06T07:25:12.189Z,69.50
2022-09-06T07:27:49.603Z,70.02
2022-09-06T07:30:20.831Z,69.99
2022-09-06T07:32:48.964Z,69.92
2022-09-06T07:35:17.629Z,69.84
2022-09-06T07:37:53.146Z,69.48
2022-09-06T07:40:21.318Z,68.67
2022-09-06T07:42:49.612Z,67.29
2022-09-06T07:45:19.859Z,68.05
2022-09-06T07:53:15.472Z,67.07
2022-09-06T07:55:45.981Z,66.69
2022-09-06T07:58:14.270Z,65.64
2022-09-06T08:00:43.811Z,66.02
2022-09-06T08:03:11.990Z,65.92
2022-09-06T08:11:16.347Z,65.52
2022-09-06T08:13:44.825Z,65.77
2022-09-06T08:16:20.254Z,65.33
2022-09-06T08:18:52.010Z,64.51
2022-09-06T08:21:20.747Z,64.39
2022-09-06T08:23:50.219Z,63.74
2022-09-06T08:26:19.203Z,64.09
2022-09-06T08:28:47.536Z,64.42
2022-09-06T08:31:17.108Z,64.08
2022-09-06T08:33:47.776Z,63.77
2022-09-06T08:36:16.388Z,63.00
2022-09-06T08:38:44.777Z,62.42
2022-09-06T08:41:24.314Z,63.26
2022-09-06T08:46:52.110Z,62.77
2022-09-06T08:49:22.139Z,61.98
2022-09-06T08:52:14.123Z,62.19
2022-09-06T08:54:47.969Z,61.99
2022-09-06T08:57:31.077Z,61.68
2022-09-06T09:00:03.697Z,61.28
2022-09-06T09:02:43.907Z,61.84
2022-09-06T09:05:24.404Z,61.35
2022-09-06T09:08:03.625Z,61.53
2022-09-06T09:10:35.962Z,62.10
2022-09-06T09:13:08.744Z,61.54
2022-09-06T09:15:40.345Z,61.63
2022-09-06T09:18:08.933Z,61.83
2022-09-06T09:20:40.154Z,61.93
2022-09-06T09:23:08.362Z,61.23
2022-09-06T09:25:39.529Z,61.67
2022-09-06T09:28:17.243Z,62.28
2022-09-06T09:30:51.693Z,61.74
2022-09-06T09:33:28.677Z,61.18
2022-09-06T09:36:00.661Z,61.14
2022-09-06T09:38:31.855Z,60.64
2022-09-06T09:41:03.737Z,60.38
2022-09-06T09:43:33.059Z,60.74
2022-09-06T09:46:29.838Z,60.62
2022-09-06T09:49:30.101Z,60.12
2022-09-06T09:52:10.705Z,60.25
2022-09-06T09:54:41.112Z,58.83
2022-09-06T09:57:11.839Z,58.88
2022-09-06T09:59:45.385Z,59.97
2022-09-06T10:02:27.293Z,59.83
2022-09-06T10:05:02.229Z,59.53
2022-09-06T10:07:33.722Z,59.49
2022-09-06T10:10:05.266Z,59.54
2022-09-06T10:12:35.636Z,59.54
2022-09-06T10:15:06.852Z,58.39
2022-09-06T10:17:37.819Z,59.63
2022-09-06T10:20:09.326Z,59.10
2022-09-06T10:22:49.817Z,58.30
2022-09-06T10:25:39.426Z,58.97
2022-09-06T10:28:24.081Z,58.95
2022-09-06T10:31:23.716Z,58.26
2022-09-06T10:34:03.093Z,59.78
2022-09-06T10:36:35.627Z,59.23
2022-09-06T10:39:17.722Z,59.75
2022-09-06T10:42:00.600Z,59.38
2022-09-06T10:44:43.714Z,58.76
2022-09-06T10:47:14.442Z,59.43
2022-09-06T10:49:50.384Z,59.95
2022-09-06T10:52:24.259Z,59.47
2022-09-06T10:55:02.245Z,59.38
2022-09-06T11:00:25.628Z,59.27
2022-09-06T11:05:54.147Z,59.24
2022-09-06T11:11:21.771Z,58.94
2022-09-06T11:13:50.204Z,59.12
2022-09-06T11:16:24.321Z,59.24
2022-09-06T11:18:57.399Z,58.38
2022-09-06T11:21:56.428Z,59.15
2022-09-06T11:24:32.717Z,58.23
2022-09-06T11:27:06.995Z,58.82
2022-09-06T11:29:36.691Z,57.96
2022-09-06T11:32:26.405Z,57.68
2022-09-06T11:34:56.302Z,57.10
2022-09-06T11:37:27.492Z,56.94
2022-09-06T11:43:14.862Z,56.22
2022-09-06T11:45:46.251Z,56.92
2022-09-06T11:48:37.382Z,55.90
2022-09-06T11:51:10.993Z,56.62
2022-09-06T11:54:12.195Z,55.97
2022-09-06T11:56:44.250Z,55.09
2022-09-06T11:59:31.354Z,55.71
2022-09-06T12:02:05.030Z,55.10
2022-09-06T12:05:11.830Z,53.98
2022-09-06T12:08:18.266Z,55.00
2022-09-06T12:10:51.459Z,53.78
2022-09-06T12:13:54.026Z,54.71
2022-09-06T12:16:24.307Z,51.87
2022-09-06T12:19:04.728Z,52.44
2022-09-06T12:21:52.198Z,51.89
2022-09-06T12:25:02.165Z,51.81
2022-09-06T12:27:33.154Z,51.92
2022-09-06T12:30:04.434Z,51.49
2022-09-06T12:32:37.536Z,50.83
2022-09-06T12:38:00.157Z,50.18
2022-09-06T12:40:30.590Z,49.60
2022-09-06T12:42:59.491Z,48.45
2022-09-06T12:45:27.865Z,49.18
2022-09-06T12:48:09.729Z,47.62
2022-09-06T12:50:38.867Z,49.72
2022-09-06T12:53:23.411Z,53.98
2022-09-06T12:56:04.469Z,54.93
2022-09-06T12:58:32.634Z,55.84
2022-09-06T13:01:07.980Z,55.83
2022-09-06T13:03:42.748Z,55.68
2022-09-06T13:06:20.416Z,58.45
2022-09-06T13:08:55.451Z,59.46
2022-09-06T13:11:27.473Z,61.26
2022-09-06T13:13:56.552Z,63.48
2022-09-06T13:16:27.272Z,64.12
2022-09-06T13:19:11.572Z,64.83
2022-09-06T13:21:42.240Z,66.40
2022-09-06T13:24:22.080Z,66.79
2022-09-06T13:26:50.815Z,65.64
2022-09-06T13:29:26.730Z,65.05
2022-09-06T13:31:57.030Z,65.93
2022-09-06T13:34:28.242Z,66.06
2022-09-06T13:37:02.255Z,66.67
2022-09-06T13:39:32.720Z,66.60
2022-09-06T13:42:07.582Z,66.70
2022-09-06T13:44:37.017Z,67.02
2022-09-06T13:47:05.762Z,64.77
2022-09-06T13:49:35.191Z,65.00
2022-09-06T13:52:05.032Z,64.61
2022-09-06T13:54:34.049Z,64.71
2022-09-06T13:57:02.776Z,64.99
2022-09-06T13:59:31.580Z,65.95
2022-09-06T14:02:02.967Z,66.32
2022-09-06T14:04:31.973Z,67.16
2022-09-06T14:07:01.638Z,64.09
2022-09-06T14:09:30.367Z,61.75
2022-09-06T14:11:58.482Z,62.46
2022-09-06T14:14:26.660Z,64.34
2022-09-06T14:16:54.976Z,63.36
2022-09-06T14:19:24.202Z,61.63
2022-09-06T14:21:52.511Z,60.06
2022-09-06T14:24:22.050Z,61.45
2022-09-06T14:26:50.222Z,62.47
2022-09-06T14:29:18.337Z,68.67
2022-09-06T14:31:48.506Z,68.34
2022-09-06T14:34:16.638Z,63.91
2022-09-06T14:36:44.760Z,57.75
2022-09-06T14:39:12.804Z,56.41
2022-09-06T14:41:42.339Z,56.73
2022-09-06T14:44:10.937Z,56.25
2022-09-06T14:46:39.670Z,56.94
2022-09-06T14:49:10.184Z,57.40
2022-09-06T14:51:39.811Z,57.39
2022-09-06T14:54:09.610Z,58.88
2022-09-06T14:56:40.762Z,58.64
2022-09-06T14:59:10.890Z,58.48
2022-09-06T15:01:40.389Z,58.54
2022-09-06T15:04:10.493Z,59.96
2022-09-06T15:06:40.748Z,60.04
2022-09-06T15:09:11.409Z,59.12
2022-09-06T15:11:41.348Z,57.24
2022-09-06T15:14:15.447Z,54.29
2022-09-06T15:16:43.914Z,53.34
2022-09-06T15:19:12.226Z,51.95
2022-09-06T15:21:40.502Z,51.47
2022-09-06T15:24:12.112Z,51.75
2022-09-06T15:26:41.037Z,52.11
2022-09-06T15:29:11.994Z,51.72
2022-09-06T15:31:40.577Z,52.00
2022-09-06T15:34:09.832Z,51.91
2022-09-06T15:36:38.602Z,51.73
2022-09-06T15:39:07.300Z,52.77
2022-09-06T15:41:37.422Z,54.21
2022-09-06T15:44:11.378Z,54.33
2022-09-06T15:46:48.713Z,54.54
2022-09-06T15:49:19.270Z,55.03
2022-09-06T15:51:47.721Z,54.07
2022-09-06T15:54:17.746Z,55.11
2022-09-06T15:56:46.250Z,54.51
2022-09-06T15:59:15.775Z,54.60
2022-09-06T16:01:43.906Z,54.56
2022-09-06T16:04:12.243Z,54.43
2022-09-06T16:06:42.648Z,53.92
2022-09-06T16:09:14.159Z,54.24
2022-09-06T16:11:43.056Z,53.38
2022-09-06T16:14:12.824Z,53.20
2022-09-06T16:16:43.385Z,53.85
2022-09-06T16:19:13.214Z,53.64
2022-09-06T16:21:42.867Z,53.56
2022-09-06T16:24:13.081Z,54.14
2022-09-06T16:26:43.098Z,53.89
2022-09-06T16:29:12.428Z,53.58
2022-09-06T16:31:42.849Z,53.22
2022-09-06T16:34:11.859Z,53.65
2022-09-06T16:36:40.697Z,54.27
2022-09-06T16:39:09.566Z,53.46
2022-09-06T16:41:40.914Z,53.36
2022-09-06T16:44:10.293Z,52.29
2022-09-06T16:46:40.152Z,52.91
2022-09-06T16:49:10.183Z,52.44
2022-09-06T16:51:38.556Z,52.24
2022-09-06T16:54:06.879Z,52.50
2022-09-06T16:56:36.063Z,52.78
2022-09-06T16:59:06.585Z,52.22
2022-09-06T17:01:36.197Z,52.19
2022-09-06T17:04:05.626Z,52.21
2022-09-06T17:06:42.214Z,52.21
2022-09-06T17:09:10.663Z,51.61
2022-09-06T17:11:40.270Z,51.37
2022-09-06T17:14:08.843Z,51.59
2022-09-06T17:16:54.589Z,52.41
2022-09-06T17:19:22.872Z,52.45
2022-09-06T17:21:52.722Z,53.08
2022-09-06T17:24:20.928Z,53.23
2022-09-06T17:26:49.036Z,53.41
2022-09-06T17:29:17.124Z,54.10
2022-09-06T17:31:45.712Z,54.83
2022-09-06T17:34:13.795Z,55.06
2022-09-06T17:36:41.943Z,55.22
2022-09-06T17:39:13.840Z,55.61
2022-09-06T17:41:45.723Z,55.83
2022-09-06T17:44:15.500Z,56.31
2022-09-06T17:46:56.854Z,56.57
2022-09-06T17:49:27.146Z,56.64
2022-09-06T17:51:55.309Z,56.74
2022-09-06T17:54:24.823Z,56.66
2022-09-06T17:56:52.980Z,62.49
2022-09-06T17:59:21.198Z,64.60
2022-09-06T18:01:49.288Z,65.95
2022-09-06T18:04:18.084Z,66.39
2022-09-06T18:06:47.874Z,66.36
2022-09-06T18:09:17.972Z,66.13
2022-09-06T18:11:47.485Z,65.78
2022-09-06T18:14:18.035Z,65.95
2022-09-06T18:16:48.992Z,65.88
2022-09-06T18:19:18.763Z,66.20
2022-09-06T18:21:49.054Z,67.22
2022-09-06T18:24:17.707Z,67.51
2022-09-06T18:26:47.367Z,68.40
2022-09-06T18:29:18.447Z,69.13
2022-09-06T18:31:46.739Z,68.91
2022-09-06T18:34:16.558Z,68.88
2022-09-06T18:36:44.757Z,69.18
2022-09-06T18:39:13.403Z,68.39
2022-09-06T18:41:58.976Z,68.72
2022-09-06T18:44:32.259Z,68.18
2022-09-06T18:47:02.064Z,67.70
2022-09-06T18:49:30.845Z,67.57
2022-09-06T18:51:59.092Z,68.14
2022-09-06T18:54:27.430Z,68.21
2022-09-06T18:56:55.651Z,68.57
2022-09-06T18:59:23.723Z,68.63
2022-09-06T19:01:53.503Z,68.99
2022-09-06T19:04:21.754Z,69.12
2022-09-06T19:06:49.919Z,69.35
2022-09-06T19:09:18.772Z,69.44
2022-09-06T19:11:51.249Z,69.84
2022-09-06T19:14:19.623Z,70.35
2022-09-06T19:16:48.720Z,70.78
2022-09-06T19:19:18.280Z,71.20
2022-09-06T19:21:46.586Z,71.44
2022-09-06T19:24:16.066Z,71.21
2022-09-06T19:26:46.353Z,71.40
2022-09-06T19:29:17.525Z,71.88
2022-09-06T19:31:47.067Z,71.40
2022-09-06T19:34:16.227Z,72.43
2022-09-06T19:36:47.081Z,72.90
2022-09-06T19:39:17.026Z,72.54
2022-09-06T19:41:47.341Z,72.80
2022-09-06T19:44:16.360Z,72.93
2022-09-06T19:46:46.791Z,73.16
2022-09-06T19:49:17.087Z,73.04
2022-09-06T19:51:48.816Z,73.50
2022-09-06T19:54:17.643Z,73.64
2022-09-06T19:56:46.854Z,73.99
2022-09-06T19:59:16.323Z,74.10
2022-09-06T20:01:46.492Z,74.52
2022-09-06T20:04:15.784Z,74.41
2022-09-06T20:06:44.100Z,74.65
2022-09-06T20:09:15.916Z,74.87
2022-09-06T20:11:44.455Z,75.17
2022-09-06T20:14:13.298Z,74.92
2022-09-06T20:16:42.600Z,74.84
2022-09-06T20:19:13.060Z,75.04
2022-09-06T20:21:41.598Z,74.94
2022-09-06T20:24:09.826Z,75.24
2022-09-06T20:26:40.354Z,75.12
2022-09-06T20:29:09.222Z,75.82
2022-09-06T20:31:39.132Z,75.62
2022-09-06T20:34:08.220Z,75.65
2022-09-06T20:36:36.688Z,75.87
2022-09-06T20:39:05.267Z,76.15
2022-09-06T20:41:33.916Z,76.34
2022-09-06T20:44:04.015Z,76.30
2022-09-06T20:46:33.938Z,76.21
2022-09-06T20:49:04.875Z,76.10
2022-09-06T20:51:34.326Z,75.88
2022-09-06T20:54:03.704Z,75.87
2022-09-06T20:56:34.308Z,76.20
2022-09-06T20:59:05.512Z,76.37
2022-09-06T21:01:35.829Z,76.30
2022-09-06T21:04:07.167Z,76.13
2022-09-06T21:06:37.076Z,76.30
2022-09-06T21:09:06.725Z,76.33
2022-09-06T21:11:34.928Z,76.48
2022-09-06T21:14:05.351Z,76.33
2022-09-06T21:16:33.920Z,76.68
2022-09-06T21:19:03.720Z,77.10
2022-09-06T21:21:34.501Z,77.01
2022-09-06T21:24:03.776Z,77.21
2022-09-06T21:26:32.196Z,77.24
2022-09-06T21:29:00.696Z,77.17
2022-09-06T21:31:32.028Z,77.40
2022-09-06T21:34:03.549Z,77.41
2022-09-06T21:36:33.992Z,77.33
2022-09-06T21:39:04.086Z,76.67
2022-09-06T21:41:34.470Z,76.70
2022-09-06T21:44:03.993Z,76.43
2022-09-06T21:46:34.995Z,76.46
2022-09-06T21:49:08.614Z,76.37
2022-09-06T21:51:37.492Z,76.78
2022-09-06T21:54:06.804Z,76.60
2022-09-06T21:56:37.007Z,77.04
2022-09-06T21:59:06.333Z,76.94
2022-09-06T22:01:37.837Z,77.25
2022-09-06T22:04:06.145Z,77.06
2022-09-06T22:06:35.926Z,76.93
2022-09-06T22:09:07.716Z,76.91
2022-09-06T22:11:36.102Z,77.38
2022-09-06T22:14:09.151Z,77.60
2022-09-06T22:16:40.242Z,77.37
2022-09-06T22:19:09.976Z,77.74
2022-09-06T22:21:39.392Z,77.40
2022-09-06T22:24:09.309Z,77.71
2022-09-06T22:26:39.928Z,77.74
2022-09-06T22:29:10.277Z,77.96
2022-09-06T22:31:40.432Z,77.55
2022-09-06T22:34:10.378Z,77.86
2022-09-06T22:36:38.675Z,77.69
2022-09-06T22:39:06.818Z,77.15
2022-09-06T22:41:35.198Z,76.95
2022-09-06T22:44:05.095Z,77.04
2022-09-06T22:46:34.451Z,77.01
2022-09-06T22:49:05.397Z,77.33
2022-09-06T22:51:33.626Z,76.83
2022-09-06T22:54:01.874Z,76.32
2022-09-06T22:56:30.218Z,75.93
2022-09-06T22:58:59.896Z,75.66
2022-09-06T23:01:28.201Z,75.20
2022-09-06T23:03:56.490Z,74.93
2022-09-06T23:06:26.126Z,74.62
2022-09-06T23:08:54.287Z,74.20
2022-09-06T23:11:22.499Z,74.10
2022-09-06T23:13:50.834Z,74.23
2022-09-06T23:16:20.329Z,73.82
2022-09-06T23:18:49.226Z,74.15
2022-09-06T23:21:19.430Z,73.05
2022-09-06T23:23:50.714Z,73.05
2022-09-06T23:26:22.390Z,72.72
2022-09-06T23:28:56.353Z,73.41
2022-09-06T23:31:26.194Z,73.24
2022-09-06T23:33:55.230Z,72.16
2022-09-06T23:36:23.389Z,71.82
2022-09-06T23:38:53.527Z,72.46
2022-09-06T23:41:22.014Z,72.09
2022-09-06T23:43:50.219Z,71.85
2022-09-06T23:46:18.572Z,71.39
2022-09-06T23:48:46.766Z,71.23
2022-09-06T23:51:14.994Z,71.20
2022-09-06T23:53:43.258Z,71.50
2022-09-06T23:56:13.135Z,70.94
2022-09-06T23:58:41.480Z,71.44
